Time;durP1;ratioP1;P1;durP2;ratioP2;P2;SDS_P1;SDS_P2;PMS_P1;PMS_P2;Temp;Humidity;BMP_temperature;BMP_pressure;BME280_temperature;BME280_humidity;BME280_pressure;Samples;Min_cycle;Max_cycle;Signal;HPM_P1;HPM_P2
2023/04/12 00:00:10;;;;;;;4.10;3.70;;;18.10;47.20;;;;;;6296547;22;21074;-86
2023/04/12 00:02:42;;;;;;;3.83;3.42;;;18.10;47.30;;;;;;6220956;22;20171;-86
2023/04/12 00:05:12;;;;;;;3.70;3.30;;;18.10;47.30;;;;;;6245746;22;20236;-86
2023/04/12 00:07:38;;;;;;;4.00;3.60;;;18.10;47.40;;;;;;6244636;22;20234;-86
2023/04/12 00:10:12;;;;;;;4.05;3.65;;;18.10;47.20;;;;;;6296883;22;20269;-85
2023/04/12 00:12:39;;;;;;;3.72;3.38;;;18.10;47.30;;;;;;6213426;22;20219;-86
2023/04/12 00:15:06;;;;;;;3.72;3.42;;;18.10;47.40;;;;;;6240308;22;20148;-86
2023/04/12 00:17:32;;;;;;;5.35;3.83;;;18.10;47.40;;;;;;6264941;22;20148;-86
2023/04/12 00:20:10;;;;;;;3.80;3.40;;;18.10;47.40;;;;;;6291194;22;20231;-86
2023/04/12 00:22:37;;;;;;;4.25;3.45;;;18.10;47.40;;;;;;6218145;22;20649;-85
2023/04/12 00:25:03;;;;;;;3.90;3.50;;;18.00;47.40;;;;;;6266243;22;20275;-85
2023/04/12 00:27:33;;;;;;;3.72;3.33;;;18.10;47.40;;;;;;6265512;22;20170;-85
2023/04/12 00:30:03;;;;;;;3.67;3.38;;;18.10;47.50;;;;;;6239832;22;20162;-85
2023/04/12 00:32:29;;;;;;;3.60;3.30;;;18.00;47.50;;;;;;6214105;22;20220;-86
2023/04/12 00:34:56;;;;;;;3.97;3.58;;;18.10;47.60;;;;;;6291403;22;20133;-86
2023/04/12 00:37:26;;;;;;;3.85;3.45;;;18.10;47.50;;;;;;6240070;22;20140;-86
2023/04/12 00:39:52;;;;;;;3.60;3.30;;;18.10;47.90;;;;;;6239156;22;20172;-86
2023/04/12 00:42:22;;;;;;;3.88;3.58;;;18.00;47.60;;;;;;6291100;22;20588;-86
2023/04/12 00:44:49;;;;;;;4.00;3.60;;;18.10;47.60;;;;;;6264666;22;20148;-85
2023/04/12 00:47:15;;;;;;;4.00;3.60;;;18.00;47.50;;;;;;6264216;22;20532;-87
2023/04/12 00:49:41;;;;;;;3.80;3.45;;;18.00;47.60;;;;;;6290653;22;20460;-86
2023/04/12 00:52:13;;;;;;;3.65;3.35;;;18.10;47.70;;;;;;6265720;22;20180;-86
2023/04/12 00:54:45;;;;;;;4.35;3.47;;;18.10;47.70;;;;;;6214978;22;20159;-86
2023/04/12 00:57:11;;;;;;;3.80;3.50;;;18.00;47.70;;;;;;6188889;22;20563;-85
2023/04/12 00:59:42;;;;;;;4.15;3.40;;;18.00;47.80;;;;;;6291491;22;20128;-86
2023/04/12 01:02:12;;;;;;;4.20;3.80;;;18.00;47.80;;;;;;6224384;22;20568;-85
2023/04/12 01:04:42;;;;;;;4.32;3.38;;;18.00;47.70;;;;;;6254462;22;20155;-86
2023/04/12 01:07:24;;;;;;;4.15;3.75;;;18.00;47.80;;;;;;6269596;22;20150;-86
2023/04/12 01:10:07;;;;;;;3.75;3.28;;;18.00;47.80;;;;;;6242985;22;20586;-86
2023/04/12 01:12:45;;;;;;;3.97;3.55;;;18.00;47.70;;;;;;6297333;22;20190;-86
2023/04/12 01:15:13;;;;;;;4.20;3.33;;;17.90;47.60;;;;;;6273459;22;20701;-86
2023/04/12 01:17:56;;;;;;;4.18;3.78;;;18.00;47.70;;;;;;6324954;22;20134;-85
2023/04/12 01:20:29;;;;;;;4.30;3.83;;;18.00;47.80;;;;;;6252824;22;20455;-86
2023/04/12 01:23:24;;;;;;;4.35;3.40;;;18.00;47.90;;;;;;6248902;22;20226;-85
2023/04/12 01:26:05;;;;;;;4.18;3.78;;;18.00;47.80;;;;;;6283367;22;20162;-86
2023/04/12 01:28:33;;;;;;;4.90;3.80;;;18.00;47.80;;;;;;6324555;22;20143;-86
2023/04/12 01:31:05;;;;;;;3.92;3.53;;;18.00;47.80;;;;;;6299652;22;20195;-86
2023/04/12 01:33:37;;;;;;;3.75;3.33;;;18.00;47.80;;;;;;6247826;22;20154;-87
2023/04/12 01:36:14;;;;;;;4.00;3.60;;;18.00;47.90;;;;;;6221479;22;20171;-85
2023/04/12 01:38:41;;;;;;;3.70;3.40;;;18.00;48.00;;;;;;6324610;22;20127;-87
2023/04/12 01:41:12;;;;;;;3.88;3.47;;;18.00;48.00;;;;;;6324583;22;20563;-87
2023/04/12 01:43:43;;;;;;;3.80;3.40;;;18.00;48.00;;;;;;6247974;22;20147;-85
2023/04/12 01:46:15;;;;;;;3.80;3.40;;;17.90;47.80;;;;;;6222342;22;20162;-88
2023/04/12 01:48:44;;;;;;;4.10;3.70;;;17.90;48.00;;;;;;6223888;22;20151;-85
2023/04/12 01:51:16;;;;;;;3.60;3.30;;;18.00;47.80;;;;;;6299071;22;20175;-86
2023/04/12 01:54:09;;;;;;;3.38;3.08;;;17.90;47.80;;;;;;6324719;22;20128;-87
2023/04/12 01:56:43;;;;;;;3.95;3.20;;;18.00;47.90;;;;;;6306946;22;20127;-85
2023/04/12 01:59:14;;;;;;;4.00;3.58;;;18.00;47.90;;;;;;6224434;22;20554;-85
2023/04/12 02:01:48;;;;;;;3.95;3.55;;;18.00;47.90;;;;;;6272450;22;20159;-86
2023/04/12 02:04:14;;;;;;;4.07;3.35;;;17.90;48.00;;;;;;6246124;22;20352;-86
2023/04/12 02:06:45;;;;;;;4.20;3.78;;;17.90;48.00;;;;;;6298578;22;20222;-86
2023/04/12 02:09:11;;;;;;;4.22;3.83;;;17.90;47.90;;;;;;6249581;22;20155;-86
2023/04/12 02:11:46;;;;;;;3.92;3.53;;;17.90;48.00;;;;;;6326130;22;20162;-86
2023/04/12 02:14:18;;;;;;;3.95;3.53;;;17.90;48.00;;;;;;6243675;22;20233;-86
2023/04/12 02:16:49;;;;;;;4.40;3.97;;;17.80;47.90;;;;;;6242747;22;20152;-86
2023/04/12 02:19:19;;;;;;;4.30;3.38;;;17.90;48.00;;;;;;6225005;22;20154;-85
2023/04/12 02:21:49;;;;;;;4.97;3.75;;;17.90;48.20;;;;;;6248638;22;20660;-86
2023/04/12 02:24:15;;;;;;;4.15;3.60;;;17.90;48.20;;;;;;6248041;22;20155;-86
2023/04/12 02:26:41;;;;;;;3.60;3.28;;;17.90;48.10;;;;;;6300759;22;20148;-86
2023/04/12 02:29:07;;;;;;;3.67;3.38;;;17.90;48.00;;;;;;6325333;22;20158;-87
2023/04/12 02:31:40;;;;;;;3.78;3.47;;;17.90;48.00;;;;;;6300699;22;20167;-86
2023/04/12 02:34:12;;;;;;;3.75;3.42;;;17.90;48.00;;;;;;6248567;22;20583;-86
2023/04/12 02:36:46;;;;;;;4.07;3.50;;;17.90;48.20;;;;;;6275373;22;20151;-86
2023/04/12 02:39:20;;;;;;;3.90;3.50;;;17.90;48.10;;;;;;6225751;22;20188;-86
2023/04/12 02:41:55;;;;;;;5.07;3.70;;;17.90;48.00;;;;;;6249268;22;20150;-86
2023/04/12 02:44:29;;;;;;;4.00;3.58;;;17.80;48.00;;;;;;6249861;22;20150;-86
2023/04/12 02:46:55;;;;;;;3.60;3.30;;;17.90;48.20;;;;;;6249724;22;20159;-86
2023/04/12 02:49:27;;;;;;;3.92;3.53;;;17.80;48.70;;;;;;6299834;22;20148;-86
2023/04/12 02:51:53;;;;;;;4.60;3.63;;;17.90;48.10;;;;;;6248386;22;20182;-86
2023/04/12 02:54:23;;;;;;;4.00;3.60;;;17.90;48.10;;;;;;6300172;22;20165;-86
2023/04/12 02:56:52;;;;;;;4.18;3.70;;;17.90;48.30;;;;;;6223522;22;20148;-86
2023/04/12 02:59:24;;;;;;;4.00;3.60;;;17.90;48.30;;;;;;6247559;22;20186;-86
2023/04/12 03:01:53;;;;;;;3.92;3.45;;;17.90;48.30;;;;;;6247814;22;20143;-85
2023/04/12 03:04:28;;;;;;;3.80;3.30;;;17.90;48.30;;;;;;6247624;22;20183;-86
2023/04/12 03:06:58;;;;;;;4.20;3.80;;;17.90;48.10;;;;;;6250985;22;20147;-86
2023/04/12 03:09:28;;;;;;;3.90;3.35;;;17.80;48.10;;;;;;6247785;22;20163;-85
2023/04/12 03:11:58;;;;;;;4.00;3.60;;;17.90;48.30;;;;;;6246879;22;20210;-86
2023/04/12 03:14:28;;;;;;;3.83;3.40;;;17.90;48.10;;;;;;6262387;22;20200;-87
2023/04/12 03:16:55;;;;;;;4.05;3.60;;;17.90;48.20;;;;;;6241318;22;20491;-86
2023/04/12 03:19:25;;;;;;;4.07;3.67;;;17.90;48.30;;;;;;6267538;22;20203;-86
2023/04/12 03:21:54;;;;;;;3.70;3.40;;;17.80;48.20;;;;;;6216197;22;20221;-86
2023/04/12 03:24:20;;;;;;;3.60;3.30;;;17.80;48.30;;;;;;6186855;22;20148;-86
2023/04/12 03:26:46;;;;;;;4.22;3.83;;;17.80;48.30;;;;;;6265879;22;20617;-86
2023/04/12 03:29:12;;;;;;;3.95;3.53;;;17.80;48.20;;;;;;6268011;22;20144;-86
2023/04/12 03:31:43;;;;;;;3.63;3.33;;;17.80;48.30;;;;;;6267864;22;20183;-86
2023/04/12 03:34:14;;;;;;;4.13;3.58;;;17.90;48.30;;;;;;6187684;22;20153;-85
2023/04/12 03:36:43;;;;;;;3.90;3.50;;;17.80;48.30;;;;;;6239915;22;20148;-86
2023/04/12 03:39:13;;;;;;;4.10;3.65;;;17.80;48.30;;;;;;6218355;22;20158;-86
2023/04/12 03:41:45;;;;;;;3.90;3.53;;;17.80;48.40;;;;;;6237538;22;20160;-87
2023/04/12 03:44:15;;;;;;;3.67;3.33;;;17.80;48.40;;;;;;6206757;22;20191;-86
2023/04/12 03:46:45;;;;;;;3.95;3.38;;;17.80;48.30;;;;;;6238158;22;20194;-85
2023/04/12 03:49:16;;;;;;;4.45;3.85;;;17.80;48.40;;;;;;6241380;22;20195;-85
2023/04/12 03:51:42;;;;;;;4.10;3.70;;;17.80;48.40;;;;;;6240548;22;20236;-85
2023/04/12 03:54:14;;;;;;;3.72;3.30;;;17.80;48.40;;;;;;6268878;22;20486;-86
2023/04/12 03:56:46;;;;;;;3.60;3.30;;;17.80;48.50;;;;;;6237713;22;20144;-87
2023/04/12 03:59:13;;;;;;;5.15;3.53;;;17.80;48.60;;;;;;6211408;22;20534;-86
2023/04/12 04:01:43;;;;;;;4.43;3.28;;;17.80;48.50;;;;;;6264118;22;20140;-85
2023/04/12 04:04:09;;;;;;;4.15;3.60;;;17.80;48.50;;;;;;6186681;22;20247;-87
2023/04/12 04:06:41;;;;;;;3.97;3.58;;;17.80;48.40;;;;;;6263364;22;20136;-86
2023/04/12 04:09:07;;;;;;;3.67;3.38;;;17.80;48.50;;;;;;6235846;22;20480;-85
2023/04/12 04:11:38;;;;;;;3.92;3.53;;;17.80;48.60;;;;;;6315628;22;20191;-86
2023/04/12 04:14:04;;;;;;;3.97;3.60;;;17.70;48.40;;;;;;6235651;22;20194;-86
2023/04/12 04:16:33;;;;;;;4.40;3.75;;;17.80;48.70;;;;;;6296019;22;20204;-86
2023/04/12 04:19:03;;;;;;;3.75;3.40;;;17.70;48.50;;;;;;6297310;22;20131;-86
2023/04/12 04:21:29;;;;;;;4.32;3.20;;;17.70;48.50;;;;;;6268301;22;20151;-85
2023/04/12 04:23:57;;;;;;;3.83;3.45;;;17.80;48.50;;;;;;6295170;22;20205;-86
2023/04/12 04:26:32;;;;;;;4.13;3.72;;;17.70;48.40;;;;;;6322093;22;20138;-86
2023/04/12 04:29:00;;;;;;;4.07;3.60;;;17.80;48.50;;;;;;6246680;22;20153;-86
2023/04/12 04:31:35;;;;;;;3.35;3.05;;;17.80;48.60;;;;;;6295780;22;20175;-86
2023/04/12 04:34:04;;;;;;;3.30;3.00;;;17.80;49.10;;;;;;6247659;22;20162;-85
2023/04/12 04:36:36;;;;;;;3.95;3.55;;;17.80;49.30;;;;;;6295745;22;20146;-86
2023/04/12 04:39:03;;;;;;;4.80;3.78;;;17.80;48.60;;;;;;6218328;22;20169;-86
2023/04/12 04:41:33;;;;;;;4.00;3.60;;;17.80;48.60;;;;;;6295519;22;20143;-86
2023/04/12 04:44:00;;;;;;;3.47;3.17;;;17.70;48.50;;;;;;6321797;22;20143;-86
2023/04/12 04:46:29;;;;;;;3.70;3.40;;;17.70;48.40;;;;;;6294574;22;20188;-86
2023/04/12 04:48:55;;;;;;;4.65;3.88;;;17.80;48.50;;;;;;6294749;22;20151;-87
2023/04/12 04:51:21;;;;;;;4.00;3.60;;;17.80;48.60;;;;;;6294918;22;20630;-85
2023/04/12 04:53:47;;;;;;;3.83;3.42;;;17.80;48.60;;;;;;6295060;22;20589;-86
2023/04/12 04:56:17;;;;;;;3.90;3.45;;;17.80;48.60;;;;;;6295327;22;20213;-86
2023/04/12 04:58:43;;;;;;;4.20;3.42;;;17.80;48.50;;;;;;6243277;22;20147;-85
2023/04/12 05:01:15;;;;;;;4.55;3.60;;;17.80;48.50;;;;;;6294507;22;20150;-86
2023/04/12 05:03:50;;;;;;;3.70;3.35;;;17.80;48.70;;;;;;6244532;22;20151;-86
2023/04/12 05:06:21;;;;;;;4.72;3.40;;;17.80;48.60;;;;;;6244148;22;20154;-85
2023/04/12 05:08:47;;;;;;;4.07;3.53;;;17.80;48.50;;;;;;6219397;22;20193;-85
2023/04/12 05:11:18;;;;;;;3.90;3.53;;;17.80;48.50;;;;;;6296103;22;20167;-86
2023/04/12 05:13:44;;;;;;;4.00;3.25;;;17.80;48.50;;;;;;6227217;22;20188;-86
2023/04/12 05:16:10;;;;;;;3.70;3.40;;;17.80;48.50;;;;;;6263919;22;20144;-87
2023/04/12 05:18:37;;;;;;;3.78;3.47;;;17.90;48.40;;;;;;6290286;22;20448;-86
2023/04/12 05:21:08;;;;;;;3.80;3.40;;;17.80;48.40;;;;;;6290354;22;20208;-86
2023/04/12 05:23:46;;;;;;;3.90;3.50;;;17.80;48.40;;;;;;6237085;22;20221;-85
2023/04/12 05:26:23;;;;;;;3.90;3.45;;;17.90;48.50;;;;;;6213515;22;20179;-86
2023/04/12 05:28:52;;;;;;;4.03;3.35;;;17.80;48.50;;;;;;6238116;22;20218;-85
2023/04/12 05:31:23;;;;;;;4.05;3.60;;;17.80;48.40;;;;;;6237679;22;20184;-85
2023/04/12 05:33:56;;;;;;;4.00;3.60;;;17.90;48.50;;;;;;6262932;22;20154;-86
2023/04/12 05:36:26;;;;;;;4.20;3.80;;;17.80;48.30;;;;;;6263072;22;20155;-85
2023/04/12 05:38:56;;;;;;;3.72;3.13;;;17.80;48.30;;;;;;6237334;22;20463;-86
2023/04/12 05:41:28;;;;;;;3.55;3.25;;;17.90;48.40;;;;;;6237218;22;20175;-86
2023/04/12 05:43:54;;;;;;;3.72;3.38;;;17.90;48.30;;;;;;6238535;22;20156;-86
2023/04/12 05:46:20;;;;;;;4.13;3.38;;;17.90;48.40;;;;;;6265914;22;20144;-87
2023/04/12 05:48:46;;;;;;;4.20;3.50;;;17.90;48.30;;;;;;6265984;22;20140;-86
2023/04/12 05:51:16;;;;;;;3.50;3.20;;;17.90;48.40;;;;;;6291095;22;20179;-85
2023/04/12 05:53:42;;;;;;;3.55;3.25;;;17.90;48.40;;;;;;6214660;22;20151;-87
2023/04/12 05:56:18;;;;;;;3.90;3.28;;;17.80;48.20;;;;;;6267028;22;20140;-87
2023/04/12 05:58:46;;;;;;;3.90;3.50;;;17.90;48.30;;;;;;6215595;22;20209;-87
2023/04/12 06:01:12;;;;;;;4.13;3.72;;;17.90;48.30;;;;;;6316786;22;20175;-87
2023/04/12 06:03:43;;;;;;;3.80;3.40;;;17.90;48.20;;;;;;6291948;22;20157;-86
2023/04/12 06:06:14;;;;;;;4.00;3.58;;;17.90;48.30;;;;;;6235306;22;20611;-86
2023/04/12 06:08:52;;;;;;;4.47;3.60;;;17.90;48.30;;;;;;6257668;22;20529;-87
2023/04/12 06:11:18;;;;;;;4.00;3.60;;;17.90;49.00;;;;;;6214002;22;20553;-86
2023/04/12 06:13:44;;;;;;;3.83;3.53;;;17.90;48.30;;;;;;6295571;22;20195;-85
2023/04/12 06:16:10;;;;;;;4.25;3.85;;;17.90;48.30;;;;;;6271216;22;20179;-87
2023/04/12 06:18:40;;;;;;;4.22;3.83;;;17.90;48.20;;;;;;6297345;22;20170;-85
2023/04/12 06:21:11;;;;;;;4.10;3.67;;;18.00;48.20;;;;;;6244083;22;20155;-86
2023/04/12 06:23:41;;;;;;;3.30;3.00;;;18.00;48.20;;;;;;6270330;22;20230;-86
2023/04/12 06:26:11;;;;;;;3.40;3.10;;;18.00;48.20;;;;;;6244667;22;20147;-85
2023/04/12 06:28:41;;;;;;;3.90;3.40;;;18.00;48.20;;;;;;6243976;22;20148;-86
2023/04/12 06:31:08;;;;;;;3.92;3.53;;;18.00;48.10;;;;;;6242205;22;20198;-87
2023/04/12 06:33:59;;;;;;;3.53;3.22;;;18.10;48.00;;;;;;6317907;22;20149;-85
2023/04/12 06:36:30;;;;;;;3.70;3.25;;;18.10;48.00;;;;;;6290820;22;20166;-86
2023/04/12 06:38:55;;;;;;;4.00;3.50;;;18.10;47.90;;;;;;6216175;22;20462;-86
2023/04/12 06:41:25;;;;;;;4.32;2.85;;;18.00;48.00;;;;;;6346007;22;20262;-85
2023/04/12 06:43:55;;;;;;;3.50;3.20;;;18.10;48.00;;;;;;6215842;22;20155;-86
2023/04/12 06:46:25;;;;;;;3.50;3.20;;;18.20;47.90;;;;;;6242476;22;20147;-85
2023/04/12 06:48:56;;;;;;;3.75;3.42;;;18.20;47.80;;;;;;6320617;22;20132;-87
2023/04/12 06:51:29;;;;;;;3.60;3.30;;;18.30;48.20;;;;;;6267151;22;20186;-86
2023/04/12 06:54:04;;;;;;;3.60;3.30;;;18.40;47.30;;;;;;6246811;22;20582;-85
2023/04/12 06:56:30;;;;;;;3.40;3.10;;;18.30;47.50;;;;;;6269406;22;20154;-87
2023/04/12 06:59:03;;;;;;;4.65;3.20;;;18.30;47.10;;;;;;6301694;22;20155;-87
2023/04/12 07:01:34;;;;;;;3.42;3.13;;;18.30;47.10;;;;;;6249501;22;20158;-87
2023/04/12 07:04:05;;;;;;;3.78;3.38;;;18.30;47.10;;;;;;6275939;22;20154;-86
2023/04/12 07:06:37;;;;;;;4.55;3.55;;;18.40;47.30;;;;;;6247508;22;20153;-86
2023/04/12 07:09:08;;;;;;;3.75;3.35;;;18.40;47.30;;;;;;6270607;22;20174;-86
2023/04/12 07:11:38;;;;;;;3.65;3.35;;;18.40;47.00;;;;;;6246054;22;20198;-86
2023/04/12 07:14:08;;;;;;;3.55;3.20;;;18.50;47.30;;;;;;6223122;22;20222;-85
2023/04/12 07:16:44;;;;;;;3.63;3.25;;;18.50;46.90;;;;;;6215181;22;20144;-86
2023/04/12 07:19:15;;;;;;;3.63;3.10;;;18.50;46.90;;;;;;6194852;22;20167;-85
2023/04/12 07:21:49;;;;;;;3.72;3.38;;;18.60;46.90;;;;;;6197116;22;20155;-84
2023/04/12 07:24:15;;;;;;;3.13;2.80;;;18.70;46.80;;;;;;6221481;22;20213;-84
2023/04/12 07:26:41;;;;;;;3.67;3.10;;;18.60;46.90;;;;;;6271557;22;20576;-85
2023/04/12 07:29:07;;;;;;;3.30;3.00;;;18.60;47.60;;;;;;6292972;22;20148;-84
2023/04/12 07:31:38;;;;;;;3.50;3.20;;;18.60;47.10;;;;;;6269885;22;20244;-86
2023/04/12 07:34:10;;;;;;;3.20;2.90;;;18.50;47.30;;;;;;6219738;22;20215;-86
2023/04/12 07:36:36;;;;;;;3.50;3.20;;;18.40;47.50;;;;;;6266978;22;20176;-86
2023/04/12 07:39:02;;;;;;;3.92;3.10;;;18.40;47.30;;;;;;6295305;22;20129;-85
2023/04/12 07:41:32;;;;;;;5.68;3.50;;;18.50;47.20;;;;;;6268732;22;20154;-85
2023/04/12 07:44:02;;;;;;;5.80;3.10;;;18.60;47.20;;;;;;6243007;22;20158;-85
2023/04/12 07:46:32;;;;;;;6.65;3.03;;;18.50;47.40;;;;;;6192810;22;20148;-86
2023/04/12 07:48:59;;;;;;;4.97;3.42;;;18.50;47.40;;;;;;6192743;22;20220;-84
2023/04/12 07:51:25;;;;;;;7.50;2.95;;;18.60;47.30;;;;;;6269536;22;20186;-85
2023/04/12 07:53:57;;;;;;;5.05;3.10;;;18.60;47.20;;;;;;6270200;22;20639;-85
2023/04/12 07:56:27;;;;;;;3.10;2.80;;;18.70;47.00;;;;;;6241988;22;20155;-85
2023/04/12 07:59:03;;;;;;;5.35;3.25;;;18.70;46.90;;;;;;6219538;22;20148;-86
2023/04/12 08:01:29;;;;;;;5.22;3.13;;;18.70;47.30;;;;;;6198000;22;20473;-86
2023/04/12 08:03:56;;;;;;;3.05;2.75;;;18.70;47.20;;;;;;6273587;22;20148;-87
2023/04/12 08:06:34;;;;;;;3.20;2.80;;;18.70;47.10;;;;;;6273905;22;20163;-87
2023/04/12 08:09:08;;;;;;;3.70;2.83;;;18.70;47.20;;;;;;6240708;22;20152;-87
2023/04/12 08:11:46;;;;;;;3.88;2.90;;;18.70;47.10;;;;;;6206492;23;20345;-87
2023/04/12 08:14:36;;;;;;;4.78;3.10;;;18.70;47.20;;;;;;6143899;23;20215;-86
2023/04/12 08:17:05;;;;;;;3.30;2.75;;;18.70;47.10;;;;;;6146972;23;20147;-86
2023/04/12 08:19:38;;;;;;;2.83;2.53;;;18.80;47.00;;;;;;6176586;23;20171;-87
2023/04/12 08:22:19;;;;;;;3.97;2.70;;;18.80;47.00;;;;;;6117303;23;20190;-86
2023/04/12 08:24:54;;;;;;;3.08;2.78;;;18.80;46.90;;;;;;6114353;23;20199;-85
2023/04/12 08:27:29;;;;;;;3.55;3.00;;;18.80;46.90;;;;;;6065460;23;20156;-86
2023/04/12 08:30:04;;;;;;;2.83;2.60;;;18.80;47.00;;;;;;6118722;23;20238;-86
2023/04/12 08:32:50;;;;;;;5.13;2.78;;;18.80;47.00;;;;;;6072537;23;20159;-86
2023/04/12 08:35:35;;;;;;;5.10;2.90;;;18.90;46.90;;;;;;6085355;23;20131;-88
2023/04/12 08:38:10;;;;;;;3.08;2.78;;;18.90;46.80;;;;;;6081291;23;20157;-87
2023/04/12 08:40:42;;;;;;;4.47;2.60;;;18.90;46.70;;;;;;6116160;23;20168;-86
2023/04/12 08:43:25;;;;;;;3.58;2.45;;;18.90;46.80;;;;;;6064039;23;20163;-86
2023/04/12 08:46:01;;;;;;;3.20;2.75;;;18.90;46.90;;;;;;6115707;23;20162;-86
2023/04/12 08:48:31;;;;;;;2.75;2.40;;;18.90;46.90;;;;;;6118702;23;20154;-86
2023/04/12 08:51:00;;;;;;;5.57;3.15;;;18.80;47.00;;;;;;6121608;23;20537;-87
2023/04/12 08:53:30;;;;;;;3.55;2.92;;;18.80;46.90;;;;;;6216556;23;20215;-85
2023/04/12 08:55:56;;;;;;;3.67;2.78;;;18.90;46.90;;;;;;6184277;23;20145;-86
2023/04/12 08:58:28;;;;;;;2.88;2.53;;;18.90;46.90;;;;;;6236101;23;20283;-87
2023/04/12 09:00:54;;;;;;;3.78;2.47;;;18.90;46.90;;;;;;6189609;23;20236;-87
2023/04/12 09:03:20;;;;;;;3.88;2.70;;;18.80;47.10;;;;;;6210852;23;20153;-85
2023/04/12 09:05:49;;;;;;;2.83;2.53;;;18.90;47.10;;;;;;6206802;23;20153;-86
2023/04/12 09:08:16;;;;;;;3.17;2.63;;;18.90;47.10;;;;;;6233183;23;20597;-85
2023/04/12 09:10:46;;;;;;;3.20;2.80;;;18.90;47.20;;;;;;6235171;22;20199;-85
2023/04/12 09:13:12;;;;;;;4.68;2.92;;;18.80;47.40;;;;;;6188536;22;20211;-85
2023/04/12 09:15:48;;;;;;;2.85;2.58;;;18.80;47.30;;;;;;6261606;22;20152;-86
2023/04/12 09:18:18;;;;;;;2.80;2.60;;;18.90;47.30;;;;;;6236314;22;20148;-84
2023/04/12 09:20:44;;;;;;;2.80;2.60;;;19.00;47.10;;;;;;6191051;22;20162;-86
2023/04/12 09:23:18;;;;;;;2.90;2.60;;;19.00;47.60;;;;;;6293428;22;20132;-84
2023/04/12 09:25:52;;;;;;;2.65;2.40;;;19.00;47.10;;;;;;6272397;22;20151;-85
2023/04/12 09:28:23;;;;;;;2.50;2.30;;;19.00;47.20;;;;;;6242917;22;20486;-84
2023/04/12 09:30:58;;;;;;;2.58;2.35;;;18.90;47.90;;;;;;6269869;22;20206;-85
2023/04/12 09:33:39;;;;;;;2.90;2.60;;;18.80;47.30;;;;;;6222106;22;20163;-84
2023/04/12 09:36:12;;;;;;;3.97;2.30;;;18.80;47.40;;;;;;6270169;22;20144;-84
2023/04/12 09:38:42;;;;;;;4.13;2.60;;;18.70;47.50;;;;;;6294601;22;20174;-85
2023/04/12 09:41:29;;;;;;;4.00;2.50;;;18.80;47.50;;;;;;6299895;22;20154;-86
2023/04/12 09:44:01;;;;;;;3.67;2.47;;;18.80;47.50;;;;;;6201348;22;20163;-84
2023/04/12 09:46:31;;;;;;;2.70;2.50;;;18.90;47.40;;;;;;6220761;22;20159;-85
2023/04/12 09:49:04;;;;;;;2.95;2.30;;;18.90;47.40;;;;;;6247908;22;20152;-85
2023/04/12 09:51:36;;;;;;;4.53;2.42;;;18.90;47.50;;;;;;6218294;22;20176;-84
2023/04/12 09:54:07;;;;;;;3.42;2.47;;;18.80;47.50;;;;;;6210630;22;20148;-84
2023/04/12 09:56:35;;;;;;;2.60;2.25;;;18.80;47.60;;;;;;6213012;22;20156;-85
2023/04/12 09:59:09;;;;;;;5.65;2.85;;;18.80;47.60;;;;;;6259004;22;20151;-85
2023/04/12 10:01:41;;;;;;;2.60;2.40;;;18.80;47.50;;;;;;6219342;22;20172;-85
2023/04/12 10:04:07;;;;;;;2.90;2.40;;;18.80;47.70;;;;;;6216609;22;20487;-85
2023/04/12 10:06:33;;;;;;;2.60;2.38;;;18.80;47.70;;;;;;6269584;22;20152;-84
2023/04/12 10:09:01;;;;;;;2.83;2.60;;;18.80;47.60;;;;;;6274402;22;20173;-85
2023/04/12 10:11:29;;;;;;;3.13;2.83;;;18.80;47.50;;;;;;6209124;23;20579;-86
2023/04/12 10:13:55;;;;;;;2.90;2.60;;;18.90;47.50;;;;;;6219597;23;20212;-85
2023/04/12 10:16:25;;;;;;;2.70;2.50;;;18.90;47.60;;;;;;6233255;23;20149;-85
2023/04/12 10:19:01;;;;;;;7.75;2.55;;;18.80;47.60;;;;;;6208934;23;20283;-85
2023/04/12 10:21:27;;;;;;;4.68;2.70;;;18.80;47.60;;;;;;6216042;23;20157;-86
2023/04/12 10:23:54;;;;;;;8.10;2.80;;;18.80;47.70;;;;;;6241340;23;20153;-86
2023/04/12 10:26:20;;;;;;;5.32;2.47;;;18.80;47.80;;;;;;6214850;23;20157;-86
2023/04/12 10:29:11;;;;;;;2.92;2.50;;;18.80;47.70;;;;;;6232669;23;20177;-85
2023/04/12 10:31:42;;;;;;;3.00;2.58;;;18.80;47.90;;;;;;6254723;23;20249;-86
2023/04/12 10:34:08;;;;;;;6.50;2.60;;;18.80;47.90;;;;;;6176770;23;20208;-85
2023/04/12 10:36:52;;;;;;;4.35;2.58;;;18.90;47.80;;;;;;6226859;23;20149;-84
2023/04/12 10:39:44;;;;;;;6.97;2.63;;;18.80;47.70;;;;;;6232795;23;20150;-84
2023/04/12 10:42:22;;;;;;;4.30;2.70;;;18.80;48.00;;;;;;6179902;23;20160;-84
2023/04/12 10:44:50;;;;;;;6.00;2.80;;;18.80;48.00;;;;;;6252211;23;20130;-85
2023/04/12 10:47:31;;;;;;;3.58;2.85;;;18.80;48.00;;;;;;6202595;23;20149;-85
2023/04/12 10:50:28;;;;;;;5.97;2.65;;;18.70;48.00;;;;;;6304267;22;20477;-85
2023/04/12 10:53:21;;;;;;;3.40;2.67;;;18.80;47.90;;;;;;6321130;22;20135;-86
2023/04/12 10:55:47;;;;;;;6.80;3.00;;;18.80;48.10;;;;;;6300461;22;20151;-86
2023/04/12 10:58:52;;;;;;;4.00;2.60;;;18.80;48.00;;;;;;6320794;22;20143;-86
2023/04/12 11:01:18;;;;;;;4.55;2.40;;;18.80;48.00;;;;;;6298290;22;20158;-86
2023/04/12 11:04:06;;;;;;;3.25;2.67;;;18.80;48.10;;;;;;6294090;22;20151;-86
2023/04/12 11:06:55;;;;;;;3.45;2.60;;;18.70;48.10;;;;;;6321529;22;20146;-85
2023/04/12 11:09:41;;;;;;;4.35;3.08;;;18.80;48.10;;;;;;6294859;22;20481;-86
2023/04/12 11:12:12;;;;;;;4.07;2.63;;;18.70;47.90;;;;;;6250460;22;20614;-85
2023/04/12 11:14:46;;;;;;;4.78;2.47;;;18.80;47.90;;;;;;6320056;22;20179;-85
2023/04/12 11:17:25;;;;;;;4.78;2.80;;;18.80;48.00;;;;;;6321037;22;20578;-85
2023/04/12 11:19:54;;;;;;;4.00;2.78;;;18.80;47.90;;;;;;6244097;22;20147;-85
2023/04/12 11:22:26;;;;;;;4.95;3.22;;;18.80;47.90;;;;;;6293997;22;20150;-85
2023/04/12 11:24:54;;;;;;;5.50;3.03;;;18.80;47.90;;;;;;6219178;22;20231;-85
2023/04/12 11:27:21;;;;;;;3.33;2.47;;;18.80;48.00;;;;;;6294572;22;20599;-86
2023/04/12 11:29:53;;;;;;;3.90;2.78;;;18.80;48.00;;;;;;6320304;22;20154;-86
2023/04/12 11:32:20;;;;;;;4.38;2.92;;;18.80;48.10;;;;;;6242072;22;20257;-85
2023/04/12 11:34:46;;;;;;;5.55;2.70;;;18.70;48.00;;;;;;6319066;22;20569;-85
2023/04/12 11:37:12;;;;;;;3.42;2.80;;;18.80;48.20;;;;;;6294239;22;20151;-86
2023/04/12 11:39:41;;;;;;;5.47;2.92;;;18.80;48.20;;;;;;6318094;22;20135;-85
2023/04/12 11:42:12;;;;;;;3.03;2.72;;;18.80;48.90;;;;;;6319202;22;20132;-85
2023/04/12 11:44:38;;;;;;;3.95;2.88;;;18.80;48.30;;;;;;6319954;22;20143;-85
2023/04/12 11:47:05;;;;;;;4.05;2.83;;;18.80;48.30;;;;;;6294487;22;20151;-85
2023/04/12 11:49:31;;;;;;;3.30;3.00;;;18.70;48.20;;;;;;6296666;22;20135;-86
2023/04/12 11:52:03;;;;;;;3.30;3.00;;;18.80;48.30;;;;;;6297217;22;20159;-86
2023/04/12 11:54:30;;;;;;;4.28;2.67;;;18.80;48.30;;;;;;6298518;22;20488;-86
2023/04/12 11:56:58;;;;;;;3.78;3.17;;;18.70;48.30;;;;;;6297875;22;20132;-85
2023/04/12 11:59:33;;;;;;;3.50;3.13;;;18.70;48.40;;;;;;6323064;22;20185;-85
2023/04/12 12:02:03;;;;;;;3.13;2.83;;;18.70;48.30;;;;;;6272371;22;20155;-86
2023/04/12 12:04:31;;;;;;;3.72;3.10;;;18.80;48.30;;;;;;6274697;22;20162;-86
2023/04/12 12:06:59;;;;;;;5.00;3.00;;;18.70;48.30;;;;;;6274164;22;20175;-86
2023/04/12 12:09:25;;;;;;;2.97;2.75;;;18.70;48.30;;;;;;6298283;22;20567;-86
2023/04/12 12:11:54;;;;;;;4.47;3.03;;;18.80;48.30;;;;;;6273241;22;20171;-86
2023/04/12 12:14:24;;;;;;;3.50;3.20;;;18.70;48.30;;;;;;6298843;22;20262;-85
2023/04/12 12:16:53;;;;;;;3.42;3.13;;;18.70;48.30;;;;;;6299209;22;20170;-86
2023/04/12 12:19:29;;;;;;;3.47;2.97;;;18.70;48.40;;;;;;6298391;22;20152;-86
2023/04/12 12:22:13;;;;;;;4.97;3.45;;;18.70;49.10;;;;;;6271839;22;20151;-86
2023/04/12 12:24:44;;;;;;;3.75;3.15;;;18.60;48.40;;;;;;6271793;22;20151;-85
2023/04/12 12:27:10;;;;;;;5.75;3.30;;;18.60;48.30;;;;;;6273179;22;20234;-85
2023/04/12 12:29:40;;;;;;;4.00;2.80;;;18.70;48.50;;;;;;6322204;22;20142;-85
2023/04/12 12:32:11;;;;;;;3.67;3.30;;;18.70;48.40;;;;;;6321593;22;20182;-86
2023/04/12 12:34:39;;;;;;;3.50;3.20;;;18.70;48.40;;;;;;6297804;22;20209;-86
2023/04/12 12:37:09;;;;;;;3.40;3.00;;;18.70;48.40;;;;;;6298193;22;20171;-85
2023/04/12 12:39:37;;;;;;;3.42;3.13;;;18.70;48.40;;;;;;6298317;22;20139;-86
2023/04/12 12:42:05;;;;;;;3.50;3.05;;;18.70;48.40;;;;;;6298070;22;20142;-86
2023/04/12 12:44:32;;;;;;;3.72;2.90;;;18.60;48.50;;;;;;6272560;22;20193;-86
2023/04/12 12:47:00;;;;;;;3.50;3.20;;;18.60;48.50;;;;;;6271829;22;20147;-86
2023/04/12 12:49:26;;;;;;;3.22;2.92;;;18.70;48.60;;;;;;6297066;22;20178;-86
2023/04/12 12:51:53;;;;;;;3.30;3.00;;;18.70;48.40;;;;;;6298417;22;20159;-86
2023/04/12 12:54:19;;;;;;;3.85;3.38;;;18.70;48.30;;;;;;6271513;22;20178;-86
2023/04/12 12:56:45;;;;;;;3.78;3.33;;;18.70;48.30;;;;;;6272318;22;20147;-86
2023/04/12 12:59:10;;;;;;;3.50;3.20;;;18.70;48.40;;;;;;6297064;22;20154;-86
2023/04/12 13:01:37;;;;;;;3.53;3.22;;;18.70;48.50;;;;;;6297398;22;20575;-86
2023/04/12 13:04:05;;;;;;;3.20;2.90;;;18.60;48.50;;;;;;6297610;22;20132;-86
2023/04/12 13:06:33;;;;;;;3.88;3.28;;;18.70;48.40;;;;;;6297695;22;20131;-86